Time;durP1;ratioP1;P1;durP2;ratioP2;P2;SDS_P1;SDS_P2;PMS_P1;PMS_P2;Temp;Humidity;BMP_temperature;BMP_pressure;BME280_temperature;BME280_humidity;BME280_pressure;Samples;Min_cycle;Max_cycle;Signal;HPM_P1;HPM_P2
2022/06/25 00:01:42;;;;;;;52.80;31.35;;;14.80;99.90;;;;;;5036625;28;20873;-91
2022/06/25 00:05:27;;;;;;;48.83;32.70;;;14.90;99.90;;;;;;5031303;28;20649;-91
2022/06/25 00:07:00;;;;;;;50.45;32.33;;;14.80;99.90;;;;;;5021737;28;20066;-90
2022/06/25 00:09:26;;;;;;;53.55;32.08;;;14.70;99.90;;;;;;5006701;28;20097;-90
2022/06/25 00:14:40;;;;;;;45.17;31.38;;;14.80;99.90;;;;;;5045647;28;20009;-89
2022/06/25 00:17:06;;;;;;;47.20;30.75;;;14.80;99.90;;;;;;5036554;28;20025;-90
2022/06/25 00:19:32;;;;;;;48.72;30.70;;;14.80;99.90;;;;;;5030370;28;20041;-90
2022/06/25 00:21:58;;;;;;;49.63;32.28;;;14.80;99.90;;;;;;5013178;28;20033;-90
2022/06/25 00:24:24;;;;;;;45.58;30.65;;;14.80;99.90;;;;;;5016226;28;20045;-89
2022/06/25 00:26:57;;;;;;;53.30;31.17;;;14.80;99.90;;;;;;5016197;28;20026;-89
2022/06/25 00:29:23;;;;;;;46.88;31.30;;;14.80;99.90;;;;;;5016308;28;20048;-91
2022/06/25 00:31:49;;;;;;;53.63;31.05;;;14.80;99.90;;;;;;5016394;28;20029;-91
2022/06/25 00:34:15;;;;;;;52.70;32.50;;;14.90;99.90;;;;;;5012980;28;20029;-89
2022/06/25 00:36:40;;;;;;;44.47;30.75;;;14.90;99.90;;;;;;5021172;28;20067;-90
2022/06/25 00:39:14;;;;;;;45.40;31.52;;;14.90;99.90;;;;;;5032952;28;20061;-90
2022/06/25 00:41:39;;;;;;;48.00;32.05;;;14.90;99.90;;;;;;5033757;28;20036;-91
2022/06/25 00:44:09;;;;;;;41.55;29.35;;;14.80;99.90;;;;;;5050592;28;20025;-91
2022/06/25 00:46:35;;;;;;;41.05;29.42;;;14.70;99.90;;;;;;5032301;28;20095;-90
2022/06/25 00:49:10;;;;;;;45.28;28.65;;;14.70;99.90;;;;;;5032495;28;20037;-89
2022/06/25 00:51:39;;;;;;;49.05;31.00;;;14.80;99.90;;;;;;5034116;28;20056;-90
2022/06/25 00:54:08;;;;;;;42.83;28.60;;;14.70;99.90;;;;;;5031765;28;20030;-90
2022/06/25 00:56:46;;;;;;;44.08;29.92;;;14.80;99.90;;;;;;5031767;28;20037;-91
2022/06/25 00:59:14;;;;;;;40.45;28.40;;;14.80;99.90;;;;;;5032695;28;20084;-90
2022/06/25 01:01:40;;;;;;;42.40;28.73;;;14.80;99.90;;;;;;5031778;28;20028;-92
2022/06/25 01:04:06;;;;;;;38.22;28.02;;;14.90;99.90;;;;;;5028397;28;20457;-90
2022/06/25 01:06:31;;;;;;;39.95;28.63;;;14.80;99.90;;;;;;5023241;28;20112;-90
2022/06/25 01:09:05;;;;;;;52.65;31.30;;;14.80;99.90;;;;;;5034792;28;20040;-91
2022/06/25 01:11:31;;;;;;;41.03;29.38;;;14.80;99.90;;;;;;5036057;28;20033;-90
2022/06/25 01:13:57;;;;;;;39.22;28.92;;;14.90;99.90;;;;;;5036884;28;20056;-91
2022/06/25 01:16:23;;;;;;;41.20;29.65;;;14.90;99.90;;;;;;5036426;28;20048;-91
2022/06/25 01:18:50;;;;;;;42.65;30.25;;;14.90;99.90;;;;;;5036988;28;20033;-91
2022/06/25 01:21:26;;;;;;;43.22;29.23;;;14.90;99.90;;;;;;5032152;28;20029;-91
2022/06/25 01:23:52;;;;;;;42.20;30.92;;;14.90;99.90;;;;;;5036232;28;20099;-91
2022/06/25 01:26:18;;;;;;;45.85;31.50;;;14.90;99.90;;;;;;5037786;28;20475;-91
2022/06/25 01:28:45;;;;;;;46.17;33.38;;;14.80;99.90;;;;;;5037880;28;20037;-90
2022/06/25 01:31:11;;;;;;;43.85;31.25;;;14.80;99.90;;;;;;5032123;28;20030;-90
2022/06/25 01:33:43;;;;;;;44.78;32.72;;;14.80;99.90;;;;;;5037644;28;20537;-91
2022/06/25 01:36:09;;;;;;;47.80;32.92;;;14.80;99.90;;;;;;5045342;28;20040;-90
2022/06/25 01:38:35;;;;;;;42.97;30.75;;;14.80;99.90;;;;;;5037356;28;20025;-91
2022/06/25 01:41:01;;;;;;;40.28;29.58;;;14.80;99.90;;;;;;5053565;28;20053;-91
2022/06/25 01:43:27;;;;;;;48.25;30.58;;;14.80;99.90;;;;;;5021023;28;20036;-92
2022/06/25 01:46:00;;;;;;;42.22;30.13;;;14.70;99.90;;;;;;5037146;28;20036;-91
2022/06/25 01:48:27;;;;;;;39.70;27.25;;;14.70;99.90;;;;;;5037591;28;20033;-90
2022/06/25 01:50:53;;;;;;;37.72;28.27;;;14.70;99.90;;;;;;5038142;28;20098;-90
2022/06/25 01:53:19;;;;;;;38.42;26.30;;;14.60;99.90;;;;;;5037918;28;20044;-91
2022/06/25 01:55:45;;;;;;;36.53;24.85;;;14.60;99.90;;;;;;5038513;28;20069;-90
2022/06/25 01:58:19;;;;;;;39.38;25.50;;;14.50;99.90;;;;;;5037947;28;20124;-92
2022/06/25 02:00:45;;;;;;;37.33;24.13;;;14.40;99.90;;;;;;5037485;28;20032;-91
2022/06/25 02:03:12;;;;;;;36.05;23.08;;;14.40;99.90;;;;;;5035869;28;20026;-92
2022/06/25 02:08:30;;;;;;;33.03;21.73;;;14.40;99.90;;;;;;5017777;28;20041;-91
2022/06/25 02:10:57;;;;;;;35.45;20.55;;;14.30;99.90;;;;;;5035278;28;20478;-91
2022/06/25 02:13:23;;;;;;;32.08;20.52;;;14.30;99.90;;;;;;5035822;28;20084;-91
2022/06/25 02:15:58;;;;;;;28.77;20.10;;;14.30;99.90;;;;;;5032855;28;20096;-91
2022/06/25 02:18:25;;;;;;;31.48;21.33;;;14.20;99.90;;;;;;5032592;28;20056;-90
2022/06/25 02:20:51;;;;;;;29.80;20.10;;;14.20;99.90;;;;;;5029818;28;20030;-90
2022/06/25 02:23:18;;;;;;;29.20;20.25;;;14.20;99.90;;;;;;5033175;28;20044;-91
2022/06/25 02:25:52;;;;;;;30.80;21.00;;;14.20;99.90;;;;;;5030328;28;20113;-90
2022/06/25 02:28:19;;;;;;;30.75;20.48;;;14.10;99.90;;;;;;5059152;23;20067;-92
2022/06/25 02:30:45;;;;;;;27.27;19.00;;;14.10;99.90;;;;;;5040015;28;20112;-92
2022/06/25 02:33:13;;;;;;;33.40;20.45;;;14.00;99.90;;;;;;5041660;28;20025;-92
2022/06/25 02:35:53;;;;;;;26.50;19.30;;;14.00;99.90;;;;;;5042115;28;20025;-91
2022/06/25 02:38:20;;;;;;;33.13;20.58;;;14.00;99.90;;;;;;5056069;28;20489;-91
2022/06/25 02:40:50;;;;;;;27.43;19.97;;;14.00;99.90;;;;;;5038114;28;20029;-90
2022/06/25 02:43:16;;;;;;;27.90;20.10;;;13.90;99.90;;;;;;5035881;28;20136;-91
2022/06/25 02:45:47;;;;;;;40.55;20.40;;;14.00;99.90;;;;;;5039081;28;20104;-91
2022/06/25 02:48:14;;;;;;;27.95;20.10;;;13.90;99.90;;;;;;5038820;28;20087;-91
2022/06/25 02:50:41;;;;;;;34.60;22.25;;;13.90;99.90;;;;;;5039177;28;20030;-90
2022/06/25 02:53:09;;;;;;;33.30;23.13;;;13.90;99.90;;;;;;5038424;28;20120;-91
2022/06/25 03:01:21;;;;;;;37.13;24.17;;;13.80;99.90;;;;;;5041988;28;20049;-91
2022/06/25 03:03:47;;;;;;;39.65;23.35;;;13.80;99.90;;;;;;5044796;28;20025;-91
2022/06/25 03:06:23;;;;;;;39.30;23.35;;;13.80;99.90;;;;;;5043449;28;20500;-91
2022/06/25 03:08:49;;;;;;;34.38;23.05;;;13.80;99.90;;;;;;5036312;28;20034;-91
2022/06/25 03:11:17;;;;;;;33.45;20.90;;;13.80;99.90;;;;;;5039805;28;20033;-90
2022/06/25 03:13:42;;;;;;;34.60;22.27;;;13.80;99.90;;;;;;5037932;28;20033;-91
2022/06/25 03:16:17;;;;;;;31.67;20.67;;;13.80;99.90;;;;;;5037656;28;20030;-91
2022/06/25 03:18:43;;;;;;;36.85;22.35;;;13.90;99.90;;;;;;5043523;28;20089;-91
2022/06/25 03:21:37;;;;;;;31.65;21.27;;;13.90;99.90;;;;;;5059204;28;20026;-91
2022/06/25 03:24:06;;;;;;;33.70;20.00;;;13.90;99.90;;;;;;5045559;28;20034;-91
2022/06/25 03:26:34;;;;;;;31.48;21.40;;;13.90;99.90;;;;;;5034411;28;20449;-91
2022/06/25 03:29:08;;;;;;;31.27;19.17;;;13.90;99.90;;;;;;5035600;28;20528;-91
2022/06/25 03:31:36;;;;;;;28.45;18.75;;;13.80;99.90;;;;;;5032673;28;20106;-91
2022/06/25 03:34:12;;;;;;;27.10;18.75;;;13.80;99.90;;;;;;5036464;28;20081;-90
2022/06/25 03:37:04;;;;;;;27.73;18.10;;;13.70;99.90;;;;;;5028720;28;20630;-90
2022/06/25 03:39:30;;;;;;;27.30;18.48;;;13.70;99.90;;;;;;5039911;28;20820;-90
2022/06/25 03:42:02;;;;;;;28.40;19.90;;;13.70;99.90;;;;;;5039567;28;20102;-91
2022/06/25 03:44:41;;;;;;;29.40;19.25;;;13.70;99.90;;;;;;5038495;28;20030;-91
2022/06/25 03:47:21;;;;;;;28.67;18.75;;;13.70;99.90;;;;;;5035069;28;20045;-90
2022/06/25 03:49:47;;;;;;;25.75;17.38;;;13.80;99.90;;;;;;5035092;28;20040;-91
2022/06/25 03:52:16;;;;;;;26.98;16.52;;;13.90;99.90;;;;;;5033335;28;20196;-91
2022/06/25 03:54:42;;;;;;;26.58;16.20;;;13.90;99.90;;;;;;5034147;28;20129;-90
2022/06/25 03:57:17;;;;;;;21.73;16.35;;;13.90;99.90;;;;;;5032026;28;20120;-92
2022/06/25 03:59:59;;;;;;;20.95;14.27;;;13.90;99.90;;;;;;5030584;28;20030;-92
2022/06/25 04:02:33;;;;;;;18.58;14.27;;;13.90;99.90;;;;;;5032623;28;20044;-91
2022/06/25 04:05:17;;;;;;;20.73;14.43;;;13.80;99.90;;;;;;5031104;28;20074;-91
2022/06/25 04:07:49;;;;;;;24.33;13.73;;;13.90;99.90;;;;;;5033975;28;20034;-91
2022/06/25 04:10:15;;;;;;;19.30;13.98;;;13.90;99.90;;;;;;5033764;28;20080;-90
2022/06/25 04:12:41;;;;;;;16.23;13.15;;;13.90;99.90;;;;;;5033097;28;20057;-91
2022/06/25 04:15:08;;;;;;;20.17;13.15;;;13.90;99.90;;;;;;5025745;28;20388;-91
2022/06/25 04:17:33;;;;;;;16.02;13.05;;;13.90;99.90;;;;;;5031691;28;20033;-90
2022/06/25 04:20:11;;;;;;;18.70;13.13;;;13.90;99.90;;;;;;5031184;28;20030;-90
2022/06/25 04:22:38;;;;;;;17.35;13.18;;;14.00;99.90;;;;;;5025989;28;20026;-90
2022/06/25 04:25:05;;;;;;;15.60;12.93;;;14.00;99.90;;;;;;5033338;28;20026;-90
2022/06/25 04:30:15;;;;;;;16.20;12.50;;;14.00;99.90;;;;;;5031081;28;20049;-91
2022/06/25 04:32:46;;;;;;;16.52;12.95;;;14.10;99.90;;;;;;5030673;28;20029;-91
2022/06/25 04:35:22;;;;;;;18.83;12.07;;;14.10;99.90;;;;;;5028719;28;20046;-92
2022/06/25 04:37:49;;;;;;;16.83;12.23;;;14.10;99.90;;;;;;5032148;28;20026;-92
2022/06/25 04:40:18;;;;;;;14.68;12.05;;;14.10;99.90;;;;;;5032208;28;20076;-91
2022/06/25 04:42:47;;;;;;;16.90;11.02;;;14.10;99.90;;;;;;5031428;28;20034;-91
2022/06/25 04:45:20;;;;;;;12.50;11.02;;;14.00;99.90;;;;;;5030367;28;20117;-92
2022/06/25 04:48:15;;;;;;;16.90;10.93;;;14.10;99.90;;;;;;5013485;28;20046;-90
2022/06/25 04:51:11;;;;;;;16.02;11.18;;;14.10;99.90;;;;;;5020151;28;20042;-93
2022/06/25 04:53:55;;;;;;;13.70;10.50;;;14.10;99.90;;;;;;5014896;28;20030;-92
2022/06/25 04:56:29;;;;;;;16.88;10.82;;;14.10;99.90;;;;;;5028994;28;20036;-89
2022/06/25 04:58:57;;;;;;;18.10;10.13;;;14.10;99.90;;;;;;5030747;28;20026;-90
2022/06/25 05:01:45;;;;;;;17.13;9.60;;;14.20;99.90;;;;;;5045088;28;20040;-92
2022/06/25 05:04:11;;;;;;;14.45;9.18;;;14.20;99.90;;;;;;5051653;28;20121;-91
2022/06/25 05:06:37;;;;;;;13.50;10.02;;;14.30;99.90;;;;;;5048986;28;20029;-91
2022/06/25 05:09:03;;;;;;;16.70;9.43;;;14.30;99.90;;;;;;5047588;28;20037;-88
2022/06/25 05:11:29;;;;;;;12.80;9.68;;;14.30;99.90;;;;;;5041913;28;20447;-91
2022/06/25 05:14:05;;;;;;;13.05;9.13;;;14.40;99.90;;;;;;5052380;28;20072;-91
2022/06/25 05:16:32;;;;;;;10.95;7.88;;;14.40;99.90;;;;;;5055606;28;20079;-89
2022/06/25 05:18:59;;;;;;;11.00;8.30;;;14.40;99.90;;;;;;5049042;28;20099;-91
2022/06/25 05:21:25;;;;;;;14.02;9.20;;;14.50;99.90;;;;;;5028759;28;20030;-88
2022/06/25 05:23:51;;;;;;;12.13;8.80;;;14.60;99.90;;;;;;5006200;28;20454;-89
2022/06/25 05:26:19;;;;;;;11.60;8.60;;;14.70;99.90;;;;;;5042070;28;20379;-90
2022/06/25 05:28:45;;;;;;;14.13;8.48;;;14.80;99.90;;;;;;5046436;28;20064;-90
2022/06/25 05:31:12;;;;;;;13.43;7.57;;;15.10;99.90;;;;;;5044899;28;20033;-91
2022/06/25 05:33:37;;;;;;;9.88;7.03;;;15.30;99.90;;;;;;5040362;28;20049;-90
2022/06/25 05:36:04;;;;;;;10.98;6.85;;;15.30;99.90;;;;;;5028553;28;20638;-89
2022/06/25 05:38:29;;;;;;;11.35;7.05;;;15.40;99.90;;;;;;5024462;28;20372;-91
2022/06/25 05:40:58;;;;;;;10.90;6.32;;;15.30;99.90;;;;;;5012667;28;20067;-90
2022/06/25 05:43:24;;;;;;;12.82;7.30;;;15.30;99.90;;;;;;5046541;28;20752;-90
2022/06/25 05:45:50;;;;;;;11.30;6.60;;;15.30;99.90;;;;;;5014168;28;20087;-90
2022/06/25 05:48:15;;;;;;;11.65;7.38;;;15.30;99.90;;;;;;5044787;28;20036;-90
2022/06/25 05:50:41;;;;;;;12.65;7.30;;;15.30;99.90;;;;;;5029230;28;20025;-90
2022/06/25 05:53:07;;;;;;;9.27;6.97;;;15.40;99.90;;;;;;5040752;28;20033;-90
2022/06/25 05:55:42;;;;;;;9.13;6.68;;;15.40;99.90;;;;;;5015761;28;20045;-91
2022/06/25 05:58:07;;;;;;;7.53;6.32;;;15.40;99.90;;;;;;5024797;28;20079;-89
2022/06/25 06:00:33;;;;;;;8.95;6.10;;;15.50;99.90;;;;;;5048485;28;20021;-90
2022/06/25 06:02:59;;;;;;;6.50;5.80;;;15.50;99.90;;;;;;5050688;28;20022;-90
2022/06/25 06:05:25;;;;;;;11.80;6.15;;;15.60;99.90;;;;;;5048930;28;20029;-91
2022/06/25 06:07:58;;;;;;;7.40;5.90;;;15.60;99.90;;;;;;5031885;28;20034;-89
2022/06/25 06:10:24;;;;;;;10.77;5.68;;;15.60;99.90;;;;;;5047214;28;20083;-89
2022/06/25 06:12:49;;;;;;;10.57;6.43;;;15.60;99.90;;;;;;5023585;28;20034;-90
2022/06/25 06:15:16;;;;;;;11.18;6.05;;;15.70;99.90;;;;;;5040299;28;20351;-90
2022/06/25 06:17:41;;;;;;;47.40;30.35;;;15.70;99.90;;;;;;5024552;28;20034;-89
2022/06/25 06:20:15;;;;;;;8.45;7.00;;;15.60;99.90;;;;;;5023374;28;20036;-90
2022/06/25 06:22:40;;;;;;;7.03;6.32;;;15.60;99.90;;;;;;5029605;28;20029;-89
2022/06/25 06:25:07;;;;;;;9.30;5.60;;;15.70;99.90;;;;;;5041930;28;20029;-89
2022/06/25 06:27:32;;;;;;;7.90;6.18;;;15.70;99.90;;;;;;5023287;28;20110;-89
2022/06/25 06:29:58;;;;;;;8.98;6.38;;;15.70;99.90;;;;;;5041029;28;20064;-90
2022/06/25 06:32:24;;;;;;;11.63;6.28;;;15.70;99.90;;;;;;5028618;28;20038;-89
2022/06/25 06:34:53;;;;;;;8.60;5.32;;;15.80;99.90;;;;;;5024165;28;20788;-89
2022/06/25 06:37:18;;;;;;;8.10;6.05;;;15.90;99.90;;;;;;5010148;28;20038;-90
2022/06/25 06:39:44;;;;;;;10.02;5.40;;;16.10;99.90;;;;;;5006245;28;20041;-90
2022/06/25 06:42:10;;;;;;;5.93;5.07;;;16.30;99.90;;;;;;5022426;28;20084;-88
2022/06/25 06:44:50;;;;;;;7.88;5.13;;;16.30;99.90;;;;;;5040128;28;20022;-90
2022/06/25 06:47:16;;;;;;;5.22;4.72;;;16.40;99.90;;;;;;5024276;28;20037;-88
2022/06/25 06:49:42;;;;;;;5.72;5.20;;;16.20;99.90;;;;;;5030732;28;20033;-88
2022/06/25 06:52:08;;;;;;;7.65;5.93;;;16.10;99.90;;;;;;5048903;28;20029;-88
2022/06/25 06:54:33;;;;;;;13.77;5.25;;;16.20;99.90;;;;;;5034957;28;20041;-88
2022/06/25 06:56:59;;;;;;;6.13;5.00;;;16.20;99.90;;;;;;5050529;28;20033;-89
2022/06/25 06:59:26;;;;;;;7.03;5.28;;;16.30;99.90;;;;;;5034418;28;20060;-88
2022/06/25 07:01:55;;;;;;;7.35;4.70;;;16.40;99.90;;;;;;5049475;28;20112;-89
2022/06/25 07:04:21;;;;;;;5.63;4.53;;;16.50;99.90;;;;;;5050227;28;20135;-89
2022/06/25 07:06:46;;;;;;;9.73;4.38;;;16.80;99.90;;;;;;5047676;28;20025;-89
2022/06/25 07:09:12;;;;;;;8.05;4.13;;;17.10;99.90;;;;;;5048303;28;20033;-88
2022/06/25 07:11:37;;;;;;;7.00;3.83;;;17.50;99.90;;;;;;5048424;28;20057;-88
2022/06/25 07:14:06;;;;;;;4.72;3.40;;;18.30;99.90;;;;;;5046876;28;20029;-88
2022/06/25 07:16:35;;;;;;;4.38;3.70;;;19.10;99.90;;;;;;5038148;28;20059;-88
2022/06/25 07:19:02;;;;;;;7.80;3.25;;;19.60;99.90;;;;;;5041294;28;20040;-88
2022/06/25 07:21:28;;;;;;;7.93;3.60;;;20.20;99.90;;;;;;5031108;28;20056;-88
2022/06/25 07:23:55;;;;;;;7.22;4.25;;;21.00;99.90;;;;;;5046062;28;20486;-87
2022/06/25 07:26:28;;;;;;;6.75;4.03;;;20.70;99.90;;;;;;5031416;28;20032;-87
2022/06/25 07:28:54;;;;;;;5.35;3.75;;;21.00;99.90;;;;;;5031457;28;20402;-88
2022/06/25 07:31:20;;;;;;;5.47;3.92;;;22.20;99.90;;;;;;5049814;28;20040;-87
2022/06/25 07:33:46;;;;;;;8.27;3.65;;;22.40;99.90;;;;;;5044244;28;20080;-87
2022/06/25 07:36:12;;;;;;;8.38;3.03;;;22.90;99.90;;;;;;5047707;28;20038;-88
2022/06/25 07:38:43;;;;;;;5.07;3.00;;;23.40;99.90;;;;;;5032783;28;20025;-87
2022/06/25 07:41:08;;;;;;;10.23;3.85;;;23.80;99.90;;;;;;5034376;28;20029;-87
2022/06/25 07:43:34;;;;;;;5.57;3.50;;;23.40;99.90;;;;;;5049823;28;20029;-87
2022/06/25 07:46:00;;;;;;;4.30;3.88;;;23.20;99.90;;;;;;5053940;28;20049;-87
2022/06/25 07:48:26;;;;;;;8.45;4.22;;;22.80;99.90;;;;;;5047740;28;20036;-88
2022/06/25 07:53:36;;;;;;;5.88;4.35;;;21.80;99.90;;;;;;5030568;28;20041;-87
2022/06/25 07:56:02;;;;;;;6.28;4.95;;;21.30;99.90;;;;;;5050432;28;20029;-85
2022/06/25 07:58:28;;;;;;;6.68;4.85;;;21.20;99.90;;;;;;5047483;28;20131;-86
2022/06/25 08:00:54;;;;;;;4.35;3.92;;;21.10;99.90;;;;;;5048903;28;20056;-86
2022/06/25 08:03:20;;;;;;;7.35;3.28;;;22.10;99.90;;;;;;5029392;28;20025;-88
2022/06/25 08:05:46;;;;;;;3.92;3.08;;;23.00;99.90;;;;;;5036854;28;20347;-87
2022/06/25 08:08:13;;;;;;;7.97;3.42;;;22.80;99.90;;;;;;5052541;28;20029;-88
2022/06/25 08:10:42;;;;;;;5.30;3.30;;;22.70;99.90;;;;;;5047741;28;20037;-88
2022/06/25 08:13:08;;;;;;;8.00;3.35;;;23.40;99.90;;;;;;5048797;28;20174;-87
2022/06/25 08:15:39;;;;;;;4.30;3.85;;;24.20;99.90;;;;;;5049027;28;20064;-87
2022/06/25 08:18:05;;;;;;;9.50;3.47;;;23.60;99.90;;;;;;5056782;28;20089;-90
2022/06/25 08:20:30;;;;;;;6.18;3.53;;;22.80;99.90;;;;;;5053970;28;20099;-87
2022/06/25 08:22:57;;;;;;;6.35;2.95;;;22.30;99.90;;;;;;5047766;28;20045;-86
2022/06/25 08:25:22;;;;;;;10.38;3.50;;;21.60;99.90;;;;;;5032307;28;20493;-87
2022/06/25 08:27:50;;;;;;;5.50;3.10;;;21.50;99.90;;;;;;5049338;28;20025;-87
2022/06/25 08:30:21;;;;;;;6.22;3.00;;;21.30;99.90;;;;;;5050426;28;20033;-86
2022/06/25 08:32:47;;;;;;;6.82;3.60;;;21.30;99.90;;;;;;5048589;28;20043;-87
2022/06/25 08:35:13;;;;;;;5.90;3.03;;;21.00;99.90;;;;;;5033014;28;20029;-87
2022/06/25 08:37:42;;;;;;;3.33;3.03;;;20.50;99.90;;;;;;5048603;28;20137;-87
2022/06/25 08:40:09;;;;;;;6.38;3.25;;;20.10;99.90;;;;;;5046321;28;20131;-87
2022/06/25 08:42:37;;;;;;;6.65;3.30;;;20.10;99.90;;;;;;5046755;28;20030;-86
2022/06/25 08:45:04;;;;;;;8.15;2.85;;;20.30;99.90;;;;;;5032085;28;20720;-87
2022/06/25 08:47:30;;;;;;;5.63;2.92;;;22.00;99.90;;;;;;5046918;28;20037;-85
2022/06/25 08:49:55;;;;;;;6.97;3.10;;;24.10;99.90;;;;;;5046090;28;20040;-87
2022/06/25 08:52:22;;;;;;;3.88;2.08;;;25.80;99.90;;;;;;5041889;28;20436;-86
2022/06/25 08:54:48;;;;;;;3.42;2.38;;;26.70;99.90;;;;;;5042789;28;20090;-86
2022/06/25 08:57:14;;;;;;;3.58;2.25;;;27.10;99.90;;;;;;5045297;28;20152;-88
2022/06/25 08:59:41;;;;;;;2.95;1.88;;;27.90;99.90;;;;;;5043784;28;20116;-86
2022/06/25 09:02:07;;;;;;;7.30;1.90;;;28.50;99.90;;;;;;5044666;28;20029;-86
2022/06/25 09:04:33;;;;;;;3.28;1.80;;;28.30;99.90;;;;;;5030134;28;20079;-86
2022/06/25 09:07:13;;;;;;;2.58;1.75;;;28.40;99.90;;;;;;5026562;28;20041;-87
2022/06/25 09:09:44;;;;;;;7.43;2.50;;;28.40;99.90;;;;;;5027644;28;20486;-86
2022/06/25 09:12:13;;;;;;;5.47;2.30;;;26.90;99.90;;;;;;5044229;28;20284;-87
2022/06/25 09:14:38;;;;;;;5.63;1.98;;;25.90;99.90;;;;;;5044041;28;20390;-86
2022/06/25 09:17:12;;;;;;;4.43;2.03;;;26.40;99.90;;;;;;5043450;28;20034;-86
2022/06/25 09:19:43;;;;;;;41.42;21.20;;;27.70;99.90;;;;;;5043745;28;20444;-86
2022/06/25 09:22:10;;;;;;;;;;;28.70;99.90;;;;;;5044201;28;20040;-86
2022/06/25 09:24:57;;;;;;;5.47;2.47;;;29.40;99.90;;;;;;5042731;28;19913;-86
2022/06/25 09:27:45;;;;;;;3.63;2.10;;;29.50;99.90;;;;;;5042880;28;20109;-87
2022/06/25 09:30:20;;;;;;;5.57;1.90;;;29.40;99.90;;;;;;5011042;28;20052;-89
2022/06/25 09:32:48;;;;;;;3.95;1.90;;;29.20;99.90;;;;;;5028988;28;20033;-86
2022/06/25 09:35:30;;;;;;;2.58;1.60;;;28.20;99.90;;;;;;5044777;28;20037;-87
2022/06/25 09:38:20;;;;;;;5.10;2.28;;;27.10;99.90;;;;;;5007261;28;20124;-86
2022/06/25 09:40:54;;;;;;;2.97;1.63;;;27.60;99.90;;;;;;5036478;28;20040;-88
2022/06/25 09:43:28;;;;;;;7.18;1.40;;;29.30;99.90;;;;;;5047223;28;20398;-86
2022/06/25 09:46:05;;;;;;;8.80;1.63;;;30.90;99.90;;;;;;5041612;28;20022;-87
2022/06/25 09:48:33;;;;;;;4.18;1.40;;;31.00;99.90;;;;;;5029446;28;20029;-86
2022/06/25 09:51:13;;;;;;;8.45;1.38;;;31.70;99.60;;;;;;5041168;28;20128;-89
2022/06/25 09:53:59;;;;;;;4.10;1.65;;;31.90;97.40;;;;;;5011485;28;20029;-85
2022/06/25 09:56:32;;;;;;;10.23;1.48;;;30.80;96.30;;;;;;5043533;28;20037;-87
2022/06/25 09:58:59;;;;;;;2.53;1.33;;;31.30;97.50;;;;;;5040048;28;20029;-87
2022/06/25 10:01:30;;;;;;;7.68;1.70;;;32.10;95.90;;;;;;5049107;28;20033;-87
2022/06/25 10:04:03;;;;;;;4.78;1.85;;;32.20;94.60;;;;;;5036614;28;20125;-86
2022/06/25 10:06:34;;;;;;;6.00;1.67;;;30.00;95.50;;;;;;5031983;28;20029;-86
2022/06/25 10:09:02;;;;;;;;;;;28.80;97.70;;;;;;5049551;28;20040;-87
2022/06/25 10:11:30;;;;;;;2.85;1.50;;;29.40;97.30;;;;;;5032039;28;19901;-87
2022/06/25 10:13:56;;;;;;;2.13;1.20;;;30.20;97.70;;;;;;5048672;28;20036;-86
2022/06/25 10:16:24;;;;;;;1.98;1.38;;;30.30;94.10;;;;;;5048266;28;20030;-86
2022/06/25 10:18:51;;;;;;;4.03;1.60;;;30.10;95.70;;;;;;5048058;28;20037;-87
2022/06/25 10:21:20;;;;;;;5.50;1.25;;;29.80;93.30;;;;;;5047480;28;20029;-86
2022/06/25 10:23:49;;;;;;;4.55;1.50;;;28.80;94.50;;;;;;5047647;28;20116;-87
2022/06/25 10:26:19;;;;;;;2.83;1.40;;;27.60;96.30;;;;;;5047849;28;20041;-87
2022/06/25 10:28:46;;;;;;;3.00;1.48;;;27.40;98.60;;;;;;5048516;28;20034;-87
2022/06/25 10:31:18;;;;;;;3.97;2.20;;;27.20;97.00;;;;;;5029331;28;20033;-86
2022/06/25 10:33:59;;;;;;;2.65;1.35;;;27.40;98.70;;;;;;5029412;28;20038;-87
2022/06/25 10:36:43;;;;;;;3.47;1.80;;;27.30;99.90;;;;;;5048331;28;20041;-86
2022/06/25 10:39:27;;;;;;;1.67;1.52;;;27.70;99.40;;;;;;5014379;28;20034;-88
2022/06/25 10:45:27;;;;;;;4.32;1.67;;;27.20;99.90;;;;;;5030784;28;20036;-87
2022/06/25 10:48:00;;;;;;;3.88;1.50;;;27.30;97.80;;;;;;5048277;28;20030;-87
2022/06/25 10:50:30;;;;;;;1.83;1.10;;;27.50;97.50;;;;;;5048450;28;20044;-87
2022/06/25 10:53:03;;;;;;;2.30;1.33;;;28.00;97.60;;;;;;5047229;28;20032;-87
2022/06/25 10:55:29;;;;;;;1.98;1.25;;;27.70;96.60;;;;;;5014166;28;20294;-86
2022/06/25 10:58:22;;;;;;;2.58;1.23;;;27.30;94.10;;;;;;5013725;28;20049;-88
2022/06/25 11:00:52;;;;;;;3.55;1.20;;;27.80;95.10;;;;;;5047151;28;20030;-86
2022/06/25 11:03:27;;;;;;;2.17;1.20;;;28.20;92.70;;;;;;5046325;28;20405;-86
2022/06/25 11:05:55;;;;;;;2.45;1.50;;;28.00;92.50;;;;;;5029860;28;20296;-86
2022/06/25 11:08:23;;;;;;;3.65;1.52;;;27.30;93.70;;;;;;5046427;28;20026;-86
2022/06/25 11:10:49;;;;;;;6.60;1.27;;;27.60;96.50;;;;;;5046453;28;20060;-87
2022/06/25 11:13:17;;;;;;;2.40;1.50;;;28.40;95.40;;;;;;5029410;28;20294;-87
2022/06/25 11:15:44;;;;;;;5.03;1.20;;;28.90;94.50;;;;;;5046581;28;20385;-88
2022/06/25 11:18:12;;;;;;;2.42;1.02;;;28.70;94.80;;;;;;5046371;28;20033;-87
2022/06/25 11:20:38;;;;;;;2.47;1.10;;;28.10;94.30;;;;;;5045817;28;20403;-88
2022/06/25 11:23:05;;;;;;;1.42;1.27;;;28.00;92.40;;;;;;5045589;28;20037;-88
2022/06/25 11:28:53;;;;;;;7.15;1.30;;;27.20;93.90;;;;;;5029497;28;20045;-86
2022/06/25 11:31:22;;;;;;;4.90;1.40;;;27.10;96.40;;;;;;5046483;28;20030;-87
2022/06/25 11:33:51;;;;;;;2.88;1.25;;;27.50;95.20;;;;;;5045749;28;20131;-86
2022/06/25 11:36:18;;;;;;;2.30;1.27;;;27.90;95.30;;;;;;5046377;28;20083;-86
2022/06/25 11:38:50;;;;;;;3.90;1.50;;;27.80;93.40;;;;;;5045868;28;20035;-87
2022/06/25 11:41:26;;;;;;;3.00;1.30;;;27.50;93.00;;;;;;5046124;28;20136;-87
2022/06/25 11:43:55;;;;;;;2.70;1.58;;;26.70;94.60;;;;;;5047063;28;20033;-86
2022/06/25 11:46:22;;;;;;;3.72;1.30;;;26.20;95.80;;;;;;5046767;28;20041;-86
2022/06/25 11:48:49;;;;;;;5.80;1.50;;;25.60;97.30;;;;;;5045844;28;20132;-87
2022/06/25 11:51:25;;;;;;;4.07;1.80;;;25.70;99.40;;;;;;5028949;28;20044;-86
2022/06/25 11:53:53;;;;;;;4.15;1.80;;;26.20;98.40;;;;;;5045553;28;20026;-88
2022/06/25 11:56:19;;;;;;;2.47;1.30;;;27.00;99.30;;;;;;5045894;28;20037;-88
2022/06/25 11:58:45;;;;;;;2.38;1.40;;;27.70;96.60;;;;;;5045889;28;20481;-88
2022/06/25 12:01:12;;;;;;;3.40;1.45;;;28.00;95.90;;;;;;5045652;28;20029;-88
2022/06/25 12:03:40;;;;;;;2.22;1.10;;;28.20;95.60;;;;;;5046272;28;20056;-87
2022/06/25 12:06:06;;;;;;;4.95;1.27;;;28.40;93.60;;;;;;5044642;28;20476;-87
2022/06/25 12:08:33;;;;;;;2.15;1.15;;;28.40;93.90;;;;;;5045200;28;20516;-87
2022/06/25 12:11:01;;;;;;;2.30;1.13;;;28.30;94.50;;;;;;5045659;28;20093;-87
2022/06/25 12:13:29;;;;;;;2.65;1.00;;;28.10;91.20;;;;;;5045464;28;20033;-87
2022/06/25 12:16:00;;;;;;;4.95;1.10;;;27.20;92.30;;;;;;5045424;28;20113;-86
2022/06/25 12:18:40;;;;;;;3.88;1.25;;;27.30;95.30;;;;;;5045258;28;20549;-88
2022/06/25 12:21:07;;;;;;;5.57;1.40;;;27.90;94.40;;;;;;5045624;28;20038;-87
2022/06/25 12:23:58;;;;;;;6.15;1.10;;;28.20;93.00;;;;;;5045663;28;20025;-87
2022/06/25 12:26:31;;;;;;;1.95;1.33;;;28.00;92.30;;;;;;5046346;28;20033;-87
2022/06/25 12:29:08;;;;;;;2.63;1.25;;;28.80;92.40;;;;;;5046823;28;20045;-86
2022/06/25 12:31:34;;;;;;;2.33;1.00;;;29.30;91.10;;;;;;5047340;28;20083;-87
2022/06/25 12:34:07;;;;;;;3.35;1.00;;;29.50;91.90;;;;;;5046715;28;20723;-86
2022/06/25 12:36:38;;;;;;;1.50;1.00;;;29.60;91.70;;;;;;5047280;28;20513;-87
2022/06/25 12:39:22;;;;;;;;;;;29.60;88.10;;;;;;5029094;28;20060;-88
2022/06/25 12:41:48;;;;;;;1.45;1.10;;;29.00;88.90;;;;;;5012105;28;19921;-88
2022/06/25 12:44:14;;;;;;;3.25;1.00;;;29.30;89.70;;;;;;5045531;28;20124;-87
2022/06/25 12:46:41;;;;;;;1.80;1.20;;;29.40;87.10;;;;;;5046004;28;20037;-87
2022/06/25 12:49:10;;;;;;;4.85;1.23;;;30.20;86.30;;;;;;5046053;28;20053;-87
2022/06/25 12:51:40;;;;;;;1.98;1.35;;;31.00;84.30;;;;;;5045893;28;20040;-87
2022/06/25 12:54:06;;;;;;;4.03;1.00;;;30.50;83.80;;;;;;5045103;28;20482;-88
2022/06/25 12:56:31;;;;;;;8.27;0.90;;;30.40;85.70;;;;;;5044741;28;20051;-86
2022/06/25 12:58:58;;;;;;;1.40;0.90;;;31.00;83.50;;;;;;5044731;28;20029;-88
2022/06/25 13:01:26;;;;;;;1.40;0.90;;;31.50;80.40;;;;;;5045210;28;20049;-88
2022/06/25 13:03:53;;;;;;;2.50;1.02;;;31.10;79.80;;;;;;5044260;28;20167;-88
2022/06/25 13:06:20;;;;;;;2.05;0.90;;;31.10;80.20;;;;;;5045112;28;20039;-87
2022/06/25 13:08:46;;;;;;;1.20;0.95;;;30.80;77.90;;;;;;5028894;28;20061;-88
2022/06/25 13:11:19;;;;;;;1.35;0.80;;;30.40;79.70;;;;;;5059972;28;20034;-87
2022/06/25 13:13:46;;;;;;;1.60;0.85;;;30.70;78.80;;;;;;5046741;28;20041;-88